Time;durP1;ratioP1;P1;durP2;ratioP2;P2;SDS_P1;SDS_P2;PMS_P1;PMS_P2;Temp;Humidity;BMP_temperature;BMP_pressure;BME280_temperature;BME280_humidity;BME280_pressure;Samples;Min_cycle;Max_cycle;Signal;HPM_P1;HPM_P2
2023/08/30 00:01:37;;;;;;;16.00;10.90;;;;;;;;;;107987;286;42109;-50
2023/08/30 00:04:15;;;;;;;16.00;11.40;;;;;;;;;;107960;284;38721;-47
2023/08/30 00:06:48;;;;;;;13.40;11.00;;;;;;;;;;107798;292;175514;-45
2023/08/30 00:09:23;;;;;;;13.50;11.00;;;;;;;;;;107890;284;42751;-41
2023/08/30 00:12:00;;;;;;;13.20;10.80;;;;;;;;;;107865;292;42254;-41
2023/08/30 00:14:37;;;;;;;12.90;10.60;;;;;;;;;;107912;288;38932;-44
2023/08/30 00:17:17;;;;;;;11.60;10.30;;;;;;;;;;107849;292;175521;-46
2023/08/30 00:19:55;;;;;;;11.80;10.50;;;;;;;;;;107917;292;43986;-47
2023/08/30 00:22:29;;;;;;;12.30;10.80;;;;;;;;;;107956;284;42279;-45
2023/08/30 00:25:09;;;;;;;11.90;10.00;;;;;;;;;;107963;290;38757;-48
2023/08/30 00:27:43;;;;;;;12.40;11.00;;;;;;;;;;107950;292;39667;-44
2023/08/30 00:30:23;;;;;;;12.80;10.80;;;;;;;;;;107899;292;42773;-44
2023/08/30 00:32:56;;;;;;;11.40;10.30;;;;;;;;;;107987;284;43454;-45
2023/08/30 00:35:44;;;;;;;11.70;10.40;;;;;;;;;;107957;292;38498;-42
2023/08/30 00:38:18;;;;;;;11.40;10.30;;;;;;;;;;108040;292;41008;-42
2023/08/30 00:40:52;;;;;;;11.60;10.40;;;;;;;;;;107911;286;42956;-41
2023/08/30 00:43:25;;;;;;;12.20;10.90;;;;;;;;;;107926;292;42199;-44
2023/08/30 00:46:05;;;;;;;14.90;13.40;;;;;;;;;;107962;288;38532;-44
2023/08/30 00:48:42;;;;;;;15.80;14.20;;;;;;;;;;107979;292;39600;-44
2023/08/30 00:51:18;;;;;;;14.60;13.20;;;;;;;;;;107976;292;50192;-42
2023/08/30 00:53:52;;;;;;;13.70;12.40;;;;;;;;;;107962;286;42261;-46
2023/08/30 00:56:26;;;;;;;13.30;11.90;;;;;;;;;;107997;293;38673;-45
2023/08/30 00:59:01;;;;;;;14.30;12.90;;;;;;;;;;107981;293;39581;-46
2023/08/30 01:01:36;;;;;;;11.90;10.80;;;;;;;;;;107942;293;49409;-43
2023/08/30 01:04:14;;;;;;;12.30;11.10;;;;;;;;;;107988;293;42156;-40
2023/08/30 01:06:48;;;;;;;12.60;11.30;;;;;;;;;;107845;293;175467;-45
2023/08/30 01:09:22;;;;;;;12.80;11.60;;;;;;;;;;107800;293;175505;-42
2023/08/30 01:12:05;;;;;;;12.50;11.30;;;;;;;;;;107962;293;48729;-45
2023/08/30 01:14:47;;;;;;;13.30;11.90;;;;;;;;;;107941;293;42085;-42
2023/08/30 01:17:21;;;;;;;11.70;10.50;;;;;;;;;;107985;286;40136;-46
2023/08/30 01:20:01;;;;;;;13.30;12.00;;;;;;;;;;107929;293;39631;-45
2023/08/30 01:22:46;;;;;;;13.50;12.20;;;;;;;;;;107959;293;42531;-47
2023/08/30 01:25:37;;;;;;;12.20;11.00;;;;;;;;;;107999;293;41986;-48
2023/08/30 01:28:11;;;;;;;12.40;11.20;;;;;;;;;;107984;293;38720;-46
2023/08/30 01:30:47;;;;;;;12.30;11.10;;;;;;;;;;107985;293;40852;-45
2023/08/30 01:33:22;;;;;;;12.10;11.00;;;;;;;;;;108012;293;42807;-47
2023/08/30 01:35:58;;;;;;;11.90;10.80;;;;;;;;;;108028;292;41885;-46
2023/08/30 01:38:34;;;;;;;11.90;10.80;;;;;;;;;;108009;293;39938;-49
2023/08/30 01:41:08;;;;;;;11.20;10.10;;;;;;;;;;107859;293;175533;-47
2023/08/30 01:43:42;;;;;;;10.60;9.60;;;;;;;;;;108022;292;42716;-38
2023/08/30 01:46:19;;;;;;;11.70;10.50;;;;;;;;;;108021;293;42309;-42
2023/08/30 01:48:58;;;;;;;10.70;9.60;;;;;;;;;;108003;293;38567;-38
2023/08/30 01:51:35;;;;;;;12.50;11.20;;;;;;;;;;108007;293;40831;-39
2023/08/30 01:54:14;;;;;;;10.70;9.60;;;;;;;;;;108010;293;42836;-42
2023/08/30 01:56:48;;;;;;;10.20;9.10;;;;;;;;;;108016;293;41907;-43
2023/08/30 01:59:21;;;;;;;9.70;8.70;;;;;;;;;;107978;293;38846;-42
2023/08/30 02:01:55;;;;;;;9.60;8.60;;;;;;;;;;107918;293;39540;-43
2023/08/30 02:04:32;;;;;;;9.20;8.30;;;;;;;;;;107919;292;42907;-43
2023/08/30 02:07:12;;;;;;;9.60;8.60;;;;;;;;;;107969;292;42199;-43
2023/08/30 02:09:54;;;;;;;9.50;8.60;;;;;;;;;;107966;293;38801;-43
2023/08/30 02:12:32;;;;;;;9.40;8.50;;;;;;;;;;107958;293;39739;-43
2023/08/30 02:15:12;;;;;;;9.40;8.50;;;;;;;;;;107998;293;44181;-43
2023/08/30 02:17:45;;;;;;;9.60;8.60;;;;;;;;;;107993;292;43291;-43
2023/08/30 02:20:22;;;;;;;9.40;8.20;;;;;;;;;;107977;293;38714;-42
2023/08/30 02:23:01;;;;;;;9.30;8.40;;;;;;;;;;107956;292;39726;-43
2023/08/30 02:25:46;;;;;;;9.10;8.10;;;;;;;;;;107989;292;43140;-43
2023/08/30 02:28:21;;;;;;;9.40;8.50;;;;;;;;;;107962;293;42187;-40
2023/08/30 02:30:59;;;;;;;9.10;8.20;;;;;;;;;;107936;293;38740;-43
2023/08/30 02:33:34;;;;;;;9.60;8.60;;;;;;;;;;107912;293;45278;-42
2023/08/30 02:36:08;;;;;;;9.80;8.80;;;;;;;;;;107985;293;42882;-43
2023/08/30 02:38:42;;;;;;;9.70;8.70;;;;;;;;;;107851;293;195165;-43
2023/08/30 02:41:15;;;;;;;8.70;7.80;;;;;;;;;;107999;293;40093;-43
2023/08/30 02:43:52;;;;;;;9.40;8.40;;;;;;;;;;107963;292;45193;-44
2023/08/30 02:46:25;;;;;;;9.00;8.10;;;;;;;;;;108008;293;43337;-43
2023/08/30 02:49:00;;;;;;;8.80;7.90;;;;;;;;;;107996;293;42033;-43
2023/08/30 02:51:34;;;;;;;9.00;8.00;;;;;;;;;;108029;293;38905;-43
2023/08/30 02:54:08;;;;;;;9.00;8.10;;;;;;;;;;107936;293;45411;-44
2023/08/30 02:56:43;;;;;;;9.20;8.30;;;;;;;;;;107991;293;42649;-42
2023/08/30 02:59:17;;;;;;;9.00;7.70;;;;;;;;;;107939;293;42053;-42
2023/08/30 03:01:52;;;;;;;8.20;7.40;;;;;;;;;;107967;293;38537;-43
2023/08/30 03:04:26;;;;;;;8.80;7.90;;;;;;;;;;107944;293;46730;-43
2023/08/30 03:06:59;;;;;;;9.10;8.20;;;;;;;;;;107952;293;42779;-43
2023/08/30 03:09:32;;;;;;;8.60;7.70;;;;;;;;;;107957;293;43380;-43
2023/08/30 03:12:08;;;;;;;8.30;7.50;;;;;;;;;;108031;293;38737;-43
2023/08/30 03:14:43;;;;;;;8.50;7.70;;;;;;;;;;108067;293;46447;-43
2023/08/30 03:17:25;;;;;;;8.90;8.00;;;;;;;;;;107875;293;42899;-43
2023/08/30 03:20:00;;;;;;;8.90;8.00;;;;;;;;;;107908;293;42036;-43
2023/08/30 03:22:34;;;;;;;9.20;8.20;;;;;;;;;;107948;293;38564;-43
2023/08/30 03:25:10;;;;;;;9.30;8.30;;;;;;;;;;107971;293;44849;-44
2023/08/30 03:27:47;;;;;;;9.00;8.20;;;;;;;;;;108014;293;42773;-43
2023/08/30 03:30:21;;;;;;;9.20;8.30;;;;;;;;;;107980;293;42365;-44
2023/08/30 03:32:55;;;;;;;9.30;8.30;;;;;;;;;;107932;293;39089;-43
2023/08/30 03:35:28;;;;;;;9.50;8.50;;;;;;;;;;107956;293;47073;-44
2023/08/30 03:38:02;;;;;;;8.60;7.70;;;;;;;;;;107995;293;42848;-43
2023/08/30 03:40:37;;;;;;;9.30;8.40;;;;;;;;;;107951;293;43567;-43
2023/08/30 03:43:10;;;;;;;9.40;8.50;;;;;;;;;;108000;293;38999;-43
2023/08/30 03:45:46;;;;;;;9.10;8.10;;;;;;;;;;108024;293;45858;-43
2023/08/30 03:48:20;;;;;;;8.90;8.10;;;;;;;;;;107995;293;42502;-42
2023/08/30 03:50:54;;;;;;;8.80;8.00;;;;;;;;;;107975;293;41989;-42
2023/08/30 03:53:29;;;;;;;8.60;7.70;;;;;;;;;;107983;293;39956;-43
2023/08/30 03:56:03;;;;;;;8.80;7.90;;;;;;;;;;108011;293;45910;-43
2023/08/30 03:58:37;;;;;;;8.50;7.60;;;;;;;;;;108003;293;42736;-43
2023/08/30 04:01:11;;;;;;;8.60;7.80;;;;;;;;;;107946;293;42112;-43
2023/08/30 04:03:47;;;;;;;9.10;8.10;;;;;;;;;;107975;293;39247;-43
2023/08/30 04:06:21;;;;;;;8.80;7.90;;;;;;;;;;108005;293;45729;-43
2023/08/30 04:08:57;;;;;;;8.80;7.90;;;;;;;;;;107984;293;44197;-43
2023/08/30 04:11:30;;;;;;;8.30;7.50;;;;;;;;;;107992;293;42138;-43
2023/08/30 04:14:04;;;;;;;8.80;7.70;;;;;;;;;;107964;293;38914;-43
2023/08/30 04:16:40;;;;;;;8.70;7.90;;;;;;;;;;108010;293;45095;-43
2023/08/30 04:19:14;;;;;;;9.10;8.00;;;;;;;;;;107976;293;42694;-43
2023/08/30 04:21:47;;;;;;;8.90;8.00;;;;;;;;;;107976;293;43048;-43
2023/08/30 04:24:21;;;;;;;8.80;7.90;;;;;;;;;;107950;293;39849;-44
2023/08/30 04:26:56;;;;;;;8.30;7.50;;;;;;;;;;107983;293;45935;-43
2023/08/30 04:29:34;;;;;;;8.80;7.90;;;;;;;;;;107979;293;42904;-41
2023/08/30 04:32:09;;;;;;;8.80;8.00;;;;;;;;;;107977;293;42036;-43
2023/08/30 04:34:45;;;;;;;9.20;8.30;;;;;;;;;;107904;293;38686;-43
2023/08/30 04:37:22;;;;;;;9.20;8.00;;;;;;;;;;107967;293;39701;-43
2023/08/30 04:39:55;;;;;;;9.40;8.40;;;;;;;;;;107966;292;42735;-43
2023/08/30 04:42:30;;;;;;;9.70;8.70;;;;;;;;;;107931;293;42095;-44
2023/08/30 04:45:05;;;;;;;9.70;8.70;;;;;;;;;;107942;293;38496;-44
2023/08/30 04:47:39;;;;;;;9.00;8.10;;;;;;;;;;107886;292;175017;-43
2023/08/30 04:50:14;;;;;;;9.50;8.50;;;;;;;;;;108003;293;43193;-44
2023/08/30 04:52:47;;;;;;;9.00;7.90;;;;;;;;;;107956;293;42186;-44
2023/08/30 04:55:21;;;;;;;9.10;8.20;;;;;;;;;;107905;293;38494;-43
2023/08/30 04:57:54;;;;;;;9.20;8.30;;;;;;;;;;108015;293;39318;-44
2023/08/30 05:00:28;;;;;;;9.70;8.70;;;;;;;;;;108011;293;43133;-44
2023/08/30 05:03:01;;;;;;;9.60;8.60;;;;;;;;;;108012;293;42074;-43
2023/08/30 05:05:35;;;;;;;8.90;8.00;;;;;;;;;;107949;294;40124;-43
2023/08/30 05:08:09;;;;;;;9.20;8.30;;;;;;;;;;107734;294;328314;-43
2023/08/30 05:10:43;;;;;;;9.10;8.20;;;;;;;;;;107973;294;42826;-42
2023/08/30 05:13:19;;;;;;;9.90;8.90;;;;;;;;;;107979;295;41774;-43
2023/08/30 05:15:52;;;;;;;9.40;8.30;;;;;;;;;;107948;295;39199;-43
2023/08/30 05:18:27;;;;;;;9.50;8.60;;;;;;;;;;107981;294;40077;-43
2023/08/30 05:21:03;;;;;;;9.30;8.30;;;;;;;;;;107997;294;43894;-43
2023/08/30 05:23:36;;;;;;;9.30;8.40;;;;;;;;;;107964;295;41861;-43
2023/08/30 05:26:13;;;;;;;8.70;7.80;;;;;;;;;;107899;294;38811;-43
2023/08/30 05:28:47;;;;;;;8.80;7.90;;;;;;;;;;107901;295;39791;-43
2023/08/30 05:31:22;;;;;;;9.10;7.70;;;;;;;;;;107971;295;42996;-43
2023/08/30 05:33:55;;;;;;;9.40;8.20;;;;;;;;;;107955;295;42034;-43
2023/08/30 05:36:32;;;;;;;8.70;7.80;;;;;;;;;;107825;294;175546;-43
2023/08/30 05:39:14;;;;;;;8.80;7.90;;;;;;;;;;107961;295;39640;-43
2023/08/30 05:41:50;;;;;;;9.20;8.20;;;;;;;;;;108056;295;42486;-43
2023/08/30 05:44:24;;;;;;;8.80;7.50;;;;;;;;;;107978;294;42245;-43
2023/08/30 05:46:58;;;;;;;9.20;8.20;;;;;;;;;;107946;295;38717;-43
2023/08/30 05:49:33;;;;;;;8.80;7.80;;;;;;;;;;108005;295;39612;-43
2023/08/30 05:52:08;;;;;;;9.60;8.10;;;;;;;;;;107967;295;42741;-43
2023/08/30 05:54:44;;;;;;;9.10;7.90;;;;;;;;;;107942;294;42129;-43
2023/08/30 05:57:22;;;;;;;8.80;7.90;;;;;;;;;;107959;294;38729;-43
2023/08/30 05:59:59;;;;;;;9.10;8.20;;;;;;;;;;107806;294;177656;-43
2023/08/30 06:02:37;;;;;;;9.10;8.00;;;;;;;;;;107925;294;42800;-44
2023/08/30 06:05:12;;;;;;;7.70;6.90;;;;;;;;;;107982;293;43151;-45
2023/08/30 06:07:49;;;;;;;8.80;7.60;;;;;;;;;;107912;293;38714;-43
2023/08/30 06:10:26;;;;;;;8.70;7.30;;;;;;;;;;107926;293;40914;-43
2023/08/30 06:12:59;;;;;;;8.20;7.20;;;;;;;;;;107968;293;43982;-43
2023/08/30 06:15:34;;;;;;;8.10;7.30;;;;;;;;;;107934;293;42039;-43
2023/08/30 06:18:15;;;;;;;8.10;7.20;;;;;;;;;;107886;293;40124;-43
2023/08/30 06:20:49;;;;;;;7.90;7.00;;;;;;;;;;107988;293;40805;-44
2023/08/30 06:23:23;;;;;;;9.20;7.40;;;;;;;;;;107914;292;42473;-43
2023/08/30 06:26:02;;;;;;;8.10;7.10;;;;;;;;;;107939;293;42101;-43
2023/08/30 06:28:38;;;;;;;8.20;7.20;;;;;;;;;;108002;293;38715;-42
2023/08/30 06:31:15;;;;;;;7.80;7.00;;;;;;;;;;107353;293;891878;-43
2023/08/30 06:33:50;;;;;;;8.90;7.40;;;;;;;;;;108031;293;42700;-43
2023/08/30 06:36:28;;;;;;;8.80;7.40;;;;;;;;;;107948;293;41802;-43
2023/08/30 06:39:04;;;;;;;8.20;7.10;;;;;;;;;;108043;293;39979;-42
2023/08/30 06:41:37;;;;;;;8.40;7.30;;;;;;;;;;107966;292;39601;-44
2023/08/30 06:44:15;;;;;;;8.90;7.50;;;;;;;;;;107914;293;42761;-44
2023/08/30 06:46:51;;;;;;;10.10;8.10;;;;;;;;;;107975;293;43259;-39
2023/08/30 06:49:26;;;;;;;9.30;8.20;;;;;;;;;;107959;293;38943;-39
2023/08/30 06:52:03;;;;;;;9.60;7.60;;;;;;;;;;108005;293;39654;-41
2023/08/30 06:54:37;;;;;;;9.60;7.70;;;;;;;;;;107991;286;42923;-48
2023/08/30 06:57:11;;;;;;;9.50;7.80;;;;;;;;;;108018;292;42316;-48
2023/08/30 06:59:45;;;;;;;9.60;8.10;;;;;;;;;;108015;284;44756;-48
2023/08/30 07:02:19;;;;;;;9.30;7.70;;;;;;;;;;108028;292;40899;-47
2023/08/30 07:04:53;;;;;;;9.10;8.20;;;;;;;;;;108014;286;43369;-44
2023/08/30 07:07:29;;;;;;;8.60;7.70;;;;;;;;;;108071;286;42055;-45
2023/08/30 07:10:04;;;;;;;9.30;8.20;;;;;;;;;;108014;293;46327;-49
2023/08/30 07:12:39;;;;;;;10.10;8.30;;;;;;;;;;108085;292;42131;-48
2023/08/30 07:15:16;;;;;;;10.30;8.30;;;;;;;;;;108046;293;42787;-54
2023/08/30 07:17:49;;;;;;;10.30;8.20;;;;;;;;;;108027;292;42427;-50
2023/08/30 07:20:27;;;;;;;9.70;8.30;;;;;;;;;;108036;293;45244;-48
2023/08/30 07:23:01;;;;;;;10.60;8.00;;;;;;;;;;108093;286;39607;-43
2023/08/30 07:25:36;;;;;;;9.30;7.70;;;;;;;;;;107979;286;42956;-41
2023/08/30 07:28:11;;;;;;;10.50;7.90;;;;;;;;;;107889;293;42073;-41
2023/08/30 07:30:45;;;;;;;9.50;8.50;;;;;;;;;;107982;292;46232;-40
2023/08/30 07:33:18;;;;;;;10.80;8.30;;;;;;;;;;107970;293;39365;-41
2023/08/30 07:35:54;;;;;;;10.80;7.50;;;;;;;;;;107932;293;44005;-42
2023/08/30 07:38:27;;;;;;;10.20;8.20;;;;;;;;;;107909;293;43318;-45
2023/08/30 07:41:00;;;;;;;10.50;8.60;;;;;;;;;;107952;293;45207;-45
2023/08/30 07:43:34;;;;;;;10.60;8.30;;;;;;;;;;107941;293;39601;-45
2023/08/30 07:46:08;;;;;;;10.20;8.00;;;;;;;;;;107973;293;42910;-45
2023/08/30 07:48:41;;;;;;;9.30;7.80;;;;;;;;;;107925;293;42122;-45
2023/08/30 07:51:15;;;;;;;9.10;8.10;;;;;;;;;;107984;293;44888;-45
2023/08/30 07:53:48;;;;;;;9.20;8.20;;;;;;;;;;108020;293;40738;-45
2023/08/30 07:56:22;;;;;;;9.60;7.90;;;;;;;;;;107992;293;42923;-44
2023/08/30 07:58:56;;;;;;;9.20;8.20;;;;;;;;;;107882;292;195249;-44
2023/08/30 08:01:30;;;;;;;9.20;8.20;;;;;;;;;;108013;293;44006;-44
2023/08/30 08:04:03;;;;;;;10.70;8.20;;;;;;;;;;108001;293;39698;-44
2023/08/30 08:06:40;;;;;;;10.50;8.60;;;;;;;;;;108004;293;43105;-45
2023/08/30 08:09:13;;;;;;;9.30;8.10;;;;;;;;;;107938;293;41884;-45
2023/08/30 08:11:47;;;;;;;9.20;8.10;;;;;;;;;;108008;293;46355;-43
2023/08/30 08:14:20;;;;;;;10.20;8.30;;;;;;;;;;107997;293;39665;-44
2023/08/30 08:16:55;;;;;;;9.70;8.30;;;;;;;;;;107977;293;42937;-44
2023/08/30 08:19:29;;;;;;;9.20;8.20;;;;;;;;;;108001;293;42219;-44
2023/08/30 08:22:02;;;;;;;9.90;8.40;;;;;;;;;;108033;293;45023;-44
2023/08/30 08:24:36;;;;;;;9.50;8.20;;;;;;;;;;108015;293;39624;-44
2023/08/30 08:27:11;;;;;;;10.10;8.20;;;;;;;;;;108023;293;42461;-44
2023/08/30 08:29:44;;;;;;;9.30;8.00;;;;;;;;;;107865;293;175549;-44
2023/08/30 08:32:22;;;;;;;8.60;7.50;;;;;;;;;;108020;292;44918;-45
2023/08/30 08:34:56;;;;;;;9.80;7.70;;;;;;;;;;107996;293;39383;-44
2023/08/30 08:37:32;;;;;;;8.50;7.60;;;;;;;;;;108040;293;44360;-44
2023/08/30 08:40:08;;;;;;;8.70;7.70;;;;;;;;;;108024;293;42113;-45
2023/08/30 08:42:46;;;;;;;9.00;7.70;;;;;;;;;;108052;293;45880;-44
2023/08/30 08:45:22;;;;;;;8.80;7.40;;;;;;;;;;108000;292;40603;-44
2023/08/30 08:47:56;;;;;;;9.30;7.50;;;;;;;;;;108009;293;42773;-44
2023/08/30 08:50:31;;;;;;;8.90;7.80;;;;;;;;;;107930;292;42080;-44
2023/08/30 08:53:08;;;;;;;8.60;7.60;;;;;;;;;;107955;293;39993;-44
2023/08/30 08:55:43;;;;;;;8.90;7.80;;;;;;;;;;107948;293;39888;-44
2023/08/30 08:58:17;;;;;;;9.50;8.50;;;;;;;;;;107989;293;42812;-44
2023/08/30 09:00:50;;;;;;;9.20;8.10;;;;;;;;;;107887;293;42064;-44
2023/08/30 09:03:26;;;;;;;9.10;8.10;;;;;;;;;;107912;293;38697;-45
2023/08/30 09:06:05;;;;;;;9.40;8.30;;;;;;;;;;107996;293;40965;-45
2023/08/30 09:08:40;;;;;;;9.60;8.40;;;;;;;;;;107930;293;195929;-44
2023/08/30 09:11:14;;;;;;;9.20;8.20;;;;;;;;;;107982;293;42079;-45
2023/08/30 09:13:49;;;;;;;9.80;8.80;;;;;;;;;;108021;293;38598;-44
2023/08/30 09:16:23;;;;;;;9.70;8.70;;;;;;;;;;107946;293;39669;-44
2023/08/30 09:19:07;;;;;;;9.50;8.50;;;;;;;;;;108037;293;42820;-45
2023/08/30 09:21:56;;;;;;;10.30;8.80;;;;;;;;;;108140;293;42096;-44
2023/08/30 09:24:41;;;;;;;9.60;8.30;;;;;;;;;;108113;293;40046;-44
2023/08/30 09:27:16;;;;;;;10.40;8.50;;;;;;;;;;108113;293;39660;-44
2023/08/30 09:29:51;;;;;;;10.00;9.00;;;;;;;;;;108099;293;42502;-44
2023/08/30 09:32:26;;;;;;;11.90;10.10;;;;;;;;;;108021;293;42185;-44
2023/08/30 09:34:59;;;;;;;12.30;11.00;;;;;;;;;;108059;293;40089;-44
2023/08/30 09:37:35;;;;;;;14.00;12.60;;;;;;;;;;108143;293;41033;-44
2023/08/30 09:40:10;;;;;;;14.20;12.70;;;;;;;;;;108098;293;44165;-43
2023/08/30 09:42:47;;;;;;;13.60;12.20;;;;;;;;;;107921;293;195289;-44
2023/08/30 09:45:39;;;;;;;13.10;11.70;;;;;;;;;;108063;293;38855;-44
2023/08/30 09:48:15;;;;;;;13.50;12.10;;;;;;;;;;107942;293;175530;-44
2023/08/30 09:50:54;;;;;;;12.60;11.30;;;;;;;;;;108068;293;42793;-44
2023/08/30 09:53:28;;;;;;;13.10;11.40;;;;;;;;;;108060;293;43396;-44
2023/08/30 09:56:03;;;;;;;13.40;12.10;;;;;;;;;;108146;293;38475;-44
2023/08/30 09:58:37;;;;;;;13.70;12.30;;;;;;;;;;108061;293;39919;-44
2023/08/30 10:01:11;;;;;;;12.80;11.40;;;;;;;;;;108136;293;42932;-44
2023/08/30 10:03:48;;;;;;;13.10;11.80;;;;;;;;;;108033;293;42138;-44
2023/08/30 10:06:22;;;;;;;13.10;11.70;;;;;;;;;;107936;293;38696;-45
2023/08/30 10:08:58;;;;;;;13.00;11.60;;;;;;;;;;107905;293;39693;-45
2023/08/30 10:11:32;;;;;;;12.10;10.70;;;;;;;;;;107972;292;43309;-45
2023/08/30 10:14:06;;;;;;;11.50;10.30;;;;;;;;;;107948;293;42143;-44
2023/08/30 10:16:45;;;;;;;12.10;10.90;;;;;;;;;;107982;293;39908;-44
2023/08/30 10:19:26;;;;;;;10.70;9.60;;;;;;;;;;108044;293;39858;-44
2023/08/30 10:22:08;;;;;;;11.60;10.00;;;;;;;;;;108007;292;42727;-44
2023/08/30 10:24:50;;;;;;;12.20;9.40;;;;;;;;;;107820;293;175985;-44
2023/08/30 10:27:48;;;;;;;11.50;9.60;;;;;;;;;;107992;293;39810;-44
2023/08/30 10:30:24;;;;;;;10.80;9.40;;;;;;;;;;107993;293;40808;-44
2023/08/30 10:32:58;;;;;;;10.90;9.30;;;;;;;;;;107973;293;44171;-44
2023/08/30 10:35:32;;;;;;;9.70;8.70;;;;;;;;;;107974;293;42141;-44
2023/08/30 10:38:06;;;;;;;10.80;8.90;;;;;;;;;;108031;292;39972;-44
2023/08/30 10:40:49;;;;;;;10.30;8.80;;;;;;;;;;107988;293;40916;-44
2023/08/30 10:43:34;;;;;;;9.50;8.50;;;;;;;;;;107987;293;42838;-44
2023/08/30 10:46:11;;;;;;;9.20;8.30;;;;;;;;;;107997;293;42219;-44
2023/08/30 10:48:45;;;;;;;9.50;8.00;;;;;;;;;;107987;293;38854;-44
2023/08/30 10:51:44;;;;;;;9.50;8.30;;;;;;;;;;107961;293;39762;-44
2023/08/30 10:54:20;;;;;;;9.90;8.30;;;;;;;;;;107934;293;42488;-45
2023/08/30 10:57:01;;;;;;;9.80;8.10;;;;;;;;;;107998;293;41823;-45
2023/08/30 10:59:36;;;;;;;10.10;7.90;;;;;;;;;;107992;293;38732;-46
2023/08/30 11:02:10;;;;;;;9.00;7.90;;;;;;;;;;108012;293;39625;-45
2023/08/30 11:04:45;;;;;;;9.10;7.40;;;;;;;;;;107947;290;42943;-45
2023/08/30 11:07:19;;;;;;;9.60;7.80;;;;;;;;;;107997;293;41828;-45
2023/08/30 11:09:55;;;;;;;9.80;8.00;;;;;;;;;;108016;293;38533;-45
2023/08/30 11:12:31;;;;;;;9.70;8.00;;;;;;;;;;107965;293;39529;-45
2023/08/30 11:15:12;;;;;;;7.80;6.60;;;;;;;;;;107941;293;42847;-46
2023/08/30 11:17:46;;;;;;;10.00;7.30;;;;;;;;;;108008;293;43238;-44
2023/08/30 11:20:21;;;;;;;8.00;6.60;;;;;;;;;;108020;292;38493;-44
2023/08/30 11:22:59;;;;;;;9.60;7.00;;;;;;;;;;107961;293;39766;-44
2023/08/30 11:25:33;;;;;;;10.20;6.80;;;;;;;;;;107980;293;44135;-44
2023/08/30 11:28:10;;;;;;;8.50;7.00;;;;;;;;;;108011;293;42055;-44
2023/08/30 11:30:47;;;;;;;8.90;6.50;;;;;;;;;;108014;293;38505;-44
2023/08/30 11:33:23;;;;;;;8.30;6.30;;;;;;;;;;107980;293;39664;-44
2023/08/30 11:36:00;;;;;;;7.50;5.80;;;;;;;;;;107823;293;175206;-45
2023/08/30 11:38:33;;;;;;;10.40;6.30;;;;;;;;;;108015;293;43520;-45
2023/08/30 11:41:10;;;;;;;8.40;5.90;;;;;;;;;;107955;293;38689;-45
2023/08/30 11:43:46;;;;;;;8.40;5.80;;;;;;;;;;107985;293;39808;-44
2023/08/30 11:46:24;;;;;;;7.50;5.60;;;;;;;;;;107961;292;48008;-45
2023/08/30 11:49:00;;;;;;;7.00;5.20;;;;;;;;;;107997;293;42068;-44
2023/08/30 11:51:35;;;;;;;6.80;5.20;;;;;;;;;;107993;293;38689;-44
2023/08/30 11:54:10;;;;;;;7.10;5.20;;;;;;;;;;107921;293;39988;-45
2023/08/30 11:56:44;;;;;;;7.20;5.30;;;;;;;;;;107973;293;42934;-46
2023/08/30 11:59:23;;;;;;;7.10;5.30;;;;;;;;;;107970;293;42009;-45
2023/08/30 12:01:58;;;;;;;6.60;5.30;;;;;;;;;;108018;293;38476;-43
2023/08/30 12:04:32;;;;;;;7.10;5.20;;;;;;;;;;107920;293;40401;-44
2023/08/30 12:07:08;;;;;;;6.10;4.90;;;;;;;;;;107973;293;42711;-44
2023/08/30 12:09:44;;;;;;;6.50;5.00;;;;;;;;;;107950;293;42204;-43
2023/08/30 12:12:18;;;;;;;6.40;5.10;;;;;;;;;;107975;293;38489;-43
2023/08/30 12:15:07;;;;;;;6.50;4.80;;;;;;;;;;107901;293;39865;-43
2023/08/30 12:17:41;;;;;;;6.40;4.80;;;;;;;;;;107975;293;42457;-43
2023/08/30 12:20:23;;;;;;;6.40;4.30;;;;;;;;;;107961;293;43319;-44
2023/08/30 12:22:56;;;;;;;5.90;4.40;;;;;;;;;;107994;293;38722;-43
2023/08/30 12:25:30;;;;;;;6.10;4.70;;;;;;;;;;107951;293;39615;-43
2023/08/30 12:28:04;;;;;;;5.80;4.20;;;;;;;;;;107988;293;42825;-46
2023/08/30 12:30:38;;;;;;;6.90;5.00;;;;;;;;;;108003;293;43104;-44
2023/08/30 12:33:18;;;;;;;11.20;7.90;;;;;;;;;;107950;293;38658;-43
2023/08/30 12:35:52;;;;;;;10.40;7.50;;;;;;;;;;107863;293;195112;-43
2023/08/30 12:38:28;;;;;;;14.20;8.80;;;;;;;;;;108042;293;42875;-44
2023/08/30 12:41:01;;;;;;;13.90;9.60;;;;;;;;;;108006;292;42187;-44
2023/08/30 12:43:34;;;;;;;14.00;8.60;;;;;;;;;;107984;293;38717;-44
2023/08/30 12:46:08;;;;;;;15.00;9.70;;;;;;;;;;107952;293;39310;-43
2023/08/30 12:48:41;;;;;;;13.70;8.60;;;;;;;;;;107985;293;43979;-43
2023/08/30 12:51:15;;;;;;;14.10;8.80;;;;;;;;;;108030;292;42136;-44
2023/08/30 12:53:48;;;;;;;11.70;7.40;;;;;;;;;;108034;293;38829;-43
2023/08/30 12:56:21;;;;;;;13.50;7.50;;;;;;;;;;107921;293;40047;-44
2023/08/30 12:58:55;;;;;;;10.00;6.80;;;;;;;;;;108003;293;43934;-43
2023/08/30 13:01:28;;;;;;;10.00;6.60;;;;;;;;;;107983;293;42076;-44
2023/08/30 13:04:04;;;;;;;10.30;6.30;;;;;;;;;;107971;293;38764;-43
2023/08/30 13:06:41;;;;;;;9.50;6.10;;;;;;;;;;107973;293;39346;-44
2023/08/30 13:09:15;;;;;;;8.80;5.90;;;;;;;;;;107700;293;330081;-44
2023/08/30 13:11:48;;;;;;;8.70;5.80;;;;;;;;;;108000;293;43362;-44
2023/08/30 13:14:21;;;;;;;8.50;5.50;;;;;;;;;;107975;293;38744;-44
2023/08/30 13:16:55;;;;;;;7.80;5.00;;;;;;;;;;107950;293;40781;-44
2023/08/30 13:19:31;;;;;;;7.70;5.50;;;;;;;;;;107929;293;43079;-44
2023/08/30 13:22:07;;;;;;;7.00;5.10;;;;;;;;;;107941;293;42115;-44
2023/08/30 13:24:44;;;;;;;7.30;4.90;;;;;;;;;;107973;293;39027;-45
2023/08/30 13:27:20;;;;;;;7.10;4.80;;;;;;;;;;107886;293;39640;-46
2023/08/30 13:29:53;;;;;;;7.70;4.90;;;;;;;;;;107932;293;43089;-45
2023/08/30 13:32:27;;;;;;;7.60;5.20;;;;;;;;;;107953;292;42706;-45
2023/08/30 13:35:02;;;;;;;6.40;4.40;;;;;;;;;;107996;293;38785;-45
2023/08/30 13:37:35;;;;;;;6.60;4.60;;;;;;;;;;107993;293;39606;-44
2023/08/30 13:40:13;;;;;;;6.50;4.40;;;;;;;;;;107971;292;42713;-44
2023/08/30 13:42:47;;;;;;;7.40;4.30;;;;;;;;;;108003;292;42192;-45
2023/08/30 13:45:20;;;;;;;6.40;4.60;;;;;;;;;;107966;293;40200;-44
2023/08/30 13:47:54;;;;;;;6.70;4.30;;;;;;;;;;107953;293;40884;-44
2023/08/30 13:50:30;;;;;;;7.00;4.70;;;;;;;;;;108034;293;42757;-44
2023/08/30 13:53:06;;;;;;;6.20;4.00;;;;;;;;;;107947;293;43338;-44
2023/08/30 13:55:40;;;;;;;6.10;3.90;;;;;;;;;;108018;293;38861;-44
2023/08/30 13:58:15;;;;;;;5.50;3.60;;;;;;;;;;108016;293;39598;-44
2023/08/30 14:00:50;;;;;;;5.50;3.80;;;;;;;;;;108010;292;44003;-44
2023/08/30 14:03:27;;;;;;;5.90;3.50;;;;;;;;;;107916;286;42120;-42
2023/08/30 14:06:06;;;;;;;5.40;3.40;;;;;;;;;;107964;286;39052;-45
2023/08/30 14:08:41;;;;;;;6.00;3.70;;;;;;;;;;107307;292;893376;-45
2023/08/30 14:11:16;;;;;;;5.50;3.90;;;;;;;;;;107970;293;42608;-47
2023/08/30 14:13:50;;;;;;;5.80;3.60;;;;;;;;;;108047;290;42052;-47
2023/08/30 14:16:25;;;;;;;5.40;3.20;;;;;;;;;;108068;293;38775;-44
2023/08/30 14:19:00;;;;;;;5.30;3.60;;;;;;;;;;108042;293;40365;-43
2023/08/30 14:21:33;;;;;;;6.40;3.60;;;;;;;;;;108007;288;42949;-50
2023/08/30 14:24:08;;;;;;;5.80;3.70;;;;;;;;;;107970;293;41783;-46
2023/08/30 14:26:43;;;;;;;5.50;3.50;;;;;;;;;;107988;289;38940;-48
2023/08/30 14:29:20;;;;;;;5.10;3.50;;;;;;;;;;107971;293;39635;-47
2023/08/30 14:31:55;;;;;;;4.90;3.40;;;;;;;;;;107978;293;43076;-47
2023/08/30 14:34:30;;;;;;;5.40;3.50;;;;;;;;;;107934;293;41833;-47
2023/08/30 14:37:04;;;;;;;5.20;3.20;;;;;;;;;;107979;292;38774;-46
2023/08/30 14:39:37;;;;;;;5.70;3.50;;;;;;;;;;107939;286;39671;-46
2023/08/30 14:42:10;;;;;;;5.10;3.20;;;;;;;;;;107926;293;175550;-46
2023/08/30 14:44:46;;;;;;;6.30;4.00;;;;;;;;;;107986;293;42271;-46
2023/08/30 14:47:21;;;;;;;5.50;3.80;;;;;;;;;;107967;292;38470;-46
2023/08/30 14:49:56;;;;;;;5.70;3.60;;;;;;;;;;107966;293;39388;-47
2023/08/30 14:52:30;;;;;;;4.80;3.30;;;;;;;;;;107968;293;42467;-46
2023/08/30 14:55:06;;;;;;;4.90;3.30;;;;;;;;;;107969;292;42162;-48
2023/08/30 14:57:39;;;;;;;5.10;3.20;;;;;;;;;;107955;291;38477;-47
2023/08/30 15:00:17;;;;;;;5.40;3.20;;;;;;;;;;107916;293;45319;-47
2023/08/30 15:02:53;;;;;;;5.20;3.40;;;;;;;;;;107952;293;43788;-46
2023/08/30 15:05:26;;;;;;;4.60;3.10;;;;;;;;;;107943;293;41852;-47
2023/08/30 15:08:02;;;;;;;5.20;3.40;;;;;;;;;;107957;293;39297;-47
2023/08/30 15:10:38;;;;;;;5.70;3.10;;;;;;;;;;108074;293;44413;-47
2023/08/30 15:13:14;;;;;;;4.70;3.20;;;;;;;;;;107970;292;42750;-47
2023/08/30 15:15:54;;;;;;;5.10;3.20;;;;;;;;;;107989;293;41787;-47
2023/08/30 15:18:35;;;;;;;6.20;2.90;;;;;;;;;;107858;286;38461;-42
2023/08/30 15:21:13;;;;;;;4.10;2.70;;;;;;;;;;107965;293;47990;-42
2023/08/30 15:23:47;;;;;;;4.50;2.70;;;;;;;;;;107886;293;45067;-40
2023/08/30 15:26:22;;;;;;;4.60;2.80;;;;;;;;;;107966;293;42122;-42